OIHH  Hamadan Airport

Add Bookmark

Hamadan, Iran

Status IATA
Operational HDM
Latitude Longitude
34° 52' 9" N 48° 33' 9" E
34.869202 48.552502
Local (DST + 5) UTC (GMT + 4)
Jan 30, 2015 09:51 Jan 30, 2015 06:21
Sunrise-Sunset Local UTC
Begin Civil Twilight 06:47 03:17
Sunrise 07:14 03:44
Sunset 05:43 14:13
End Civil Twilight 06:10 14:40

Current Weather

METAR Observed VFR
OIHH 300600Z 07002KT 9999 SCT040 BKN090 05/01 Q1019 Fri, Jan 30, 2015 @ 06:00 UTC
(21 Minutes ago)
Visual Flight Rules
Wind Visibility Clouds Conditions
070° at 2 knots (4 kph) 10 km or more
  • Scattered at 4,000' AGL
  • Broken at 9,000' AGL
  • No significant weather
Temperatures Readings Precipitation
Current Temp 5°C (41°F)
Dewpoint 1°C (34°F)
Humidity 76%
Altimeter 30.09"Hg
Sea Level Pressure 1019mb
Field Elevation 5764.44'
None Recorded

24 Hour Weather History

Loading
-

24 Hour Weather Graphs

Loading
-

CheckWX.com is intended as a tool to help pilots better visualize weather data. It is not intended as a substitute for an official weather briefing obtained from a Flight Service Station. CheckWX.com does not meet the FAA requirements for an official pre-flight weather briefing. Therefore, it's important that pilots still call and obtain an official FSS pre-flight weather briefing.